createdAt,value
2022-12-20T00:00:04.141Z,91.60
2022-12-20T00:02:48.862Z,91.70
2022-12-20T00:05:28.086Z,91.70
2022-12-20T00:08:07.870Z,91.70
2022-12-20T00:14:11.980Z,91.60
2022-12-20T00:17:13.640Z,91.60
2022-12-20T00:19:49.623Z,91.60
2022-12-20T00:22:27.586Z,91.60
2022-12-20T00:24:57.238Z,91.70
2022-12-20T00:27:35.034Z,91.70
2022-12-20T00:30:17.139Z,91.60
2022-12-20T00:33:15.536Z,91.60
2022-12-20T00:35:59.557Z,91.60
2022-12-20T00:38:56.836Z,91.70
2022-12-20T00:50:09.815Z,91.60
2022-12-20T00:52:52.770Z,91.60
2022-12-20T00:55:30.592Z,92.00
2022-12-20T00:58:15.446Z,91.60
2022-12-20T01:01:32.038Z,91.60
2022-12-20T01:04:09.607Z,91.60
2022-12-20T01:07:01.922Z,91.60
2022-12-20T01:10:05.106Z,91.60
2022-12-20T01:13:17.620Z,91.50
2022-12-20T01:17:11.036Z,91.50
2022-12-20T01:25:21.975Z,91.70
2022-12-20T01:28:11.564Z,91.70
2022-12-20T01:31:11.199Z,91.80
2022-12-20T01:33:53.211Z,91.80
2022-12-20T01:36:56.113Z,91.90
2022-12-20T01:40:08.061Z,91.90
2022-12-20T01:43:02.110Z,91.90
2022-12-20T01:45:58.721Z,91.90
2022-12-20T01:48:29.442Z,92.00
2022-12-20T01:50:56.559Z,92.40
2022-12-20T01:53:33.915Z,91.90
2022-12-20T01:56:14.473Z,91.90
2022-12-20T01:58:56.206Z,91.80
2022-12-20T02:05:15.266Z,91.70
2022-12-20T02:07:57.952Z,91.70
2022-12-20T02:10:47.089Z,91.70
2022-12-20T02:13:19.595Z,91.70
2022-12-20T02:15:56.487Z,91.70
2022-12-20T02:18:25.491Z,91.70
2022-12-20T02:21:12.017Z,91.60
2022-12-20T02:23:52.476Z,91.60
2022-12-20T02:26:31.798Z,91.60
2022-12-20T02:28:58.932Z,91.50
2022-12-20T02:31:27.648Z,91.40
2022-12-20T02:33:55.699Z,91.50
2022-12-20T02:36:22.381Z,91.40
2022-12-20T02:38:51.347Z,91.40
2022-12-20T02:41:27.027Z,91.40
2022-12-20T02:44:23.951Z,91.50
2022-12-20T02:46:54.223Z,91.50
2022-12-20T02:49:23.912Z,91.50
2022-12-20T02:51:52.462Z,91.60
2022-12-20T02:54:19.900Z,91.70
2022-12-20T02:57:00.780Z,91.70
2022-12-20T02:59:43.348Z,91.70
2022-12-20T03:02:11.387Z,91.70
2022-12-20T03:04:39.871Z,91.80
2022-12-20T03:07:09.115Z,91.80
2022-12-20T03:09:37.935Z,91.80
2022-12-20T03:12:05.974Z,91.80
2022-12-20T03:14:35.862Z,91.70
2022-12-20T03:17:06.613Z,91.70
2022-12-20T03:19:33.294Z,91.70
2022-12-20T03:22:00.125Z,91.80
2022-12-20T03:24:26.804Z,91.80
2022-12-20T03:26:54.279Z,91.80
2022-12-20T03:29:23.903Z,91.80
2022-12-20T03:31:50.587Z,91.60
2022-12-20T03:34:17.362Z,91.60
2022-12-20T03:36:44.053Z,91.50
2022-12-20T03:39:10.915Z,91.50
2022-12-20T03:41:39.050Z,91.50
2022-12-20T03:44:07.878Z,91.40
2022-12-20T03:46:34.661Z,91.40
2022-12-20T03:49:03.031Z,91.40
2022-12-20T03:51:29.963Z,91.50
2022-12-20T03:53:56.930Z,91.50
2022-12-20T03:56:33.600Z,92.00
2022-12-20T03:59:00.318Z,91.50
2022-12-20T04:01:28.399Z,91.50
2022-12-20T04:03:55.971Z,91.50
2022-12-20T04:06:22.842Z,91.50
2022-12-20T04:08:51.240Z,91.60
2022-12-20T04:11:27.108Z,91.60
2022-12-20T04:14:04.854Z,91.60
2022-12-20T04:16:33.234Z,91.60
2022-12-20T04:19:01.148Z,91.60
2022-12-20T04:21:34.149Z,91.60
2022-12-20T04:24:02.027Z,91.50
2022-12-20T04:26:38.375Z,91.60
2022-12-20T04:29:05.268Z,91.60
2022-12-20T04:31:32.900Z,91.60
2022-12-20T04:34:00.291Z,91.50
2022-12-20T04:36:30.581Z,91.90
2022-12-20T04:38:59.418Z,91.50
2022-12-20T04:41:27.051Z,91.50
2022-12-20T04:43:58.889Z,91.40
2022-12-20T04:46:33.726Z,91.50
2022-12-20T04:49:01.689Z,91.50
2022-12-20T04:51:31.496Z,91.50
2022-12-20T04:53:58.426Z,91.50
2022-12-20T04:56:39.540Z,91.50
2022-12-20T04:59:14.062Z,91.50
2022-12-20T05:01:43.295Z,91.50
2022-12-20T05:04:14.824Z,91.50
2022-12-20T05:06:41.530Z,91.40
2022-12-20T05:09:08.774Z,91.40
2022-12-20T05:11:35.946Z,91.40
2022-12-20T05:14:05.895Z,91.40
2022-12-20T05:16:34.043Z,91.40
2022-12-20T05:19:03.373Z,91.30
2022-12-20T05:21:51.524Z,91.30
2022-12-20T05:24:37.527Z,91.40
2022-12-20T05:27:24.587Z,91.30
2022-12-20T05:29:51.779Z,91.40
2022-12-20T05:32:18.601Z,91.30
2022-12-20T05:34:45.406Z,91.30
2022-12-20T05:37:12.214Z,91.30
2022-12-20T05:39:41.031Z,91.30
2022-12-20T05:42:14.282Z,91.30
2022-12-20T05:44:41.175Z,91.30
2022-12-20T05:47:08.328Z,91.20
2022-12-20T05:49:36.955Z,91.20
2022-12-20T05:52:07.771Z,91.10
2022-12-20T05:54:36.553Z,91.10
2022-12-20T05:57:17.957Z,91.20
2022-12-20T05:59:46.173Z,91.20
2022-12-20T06:02:27.102Z,91.20
2022-12-20T06:05:03.927Z,91.30
2022-12-20T06:07:31.635Z,91.30
2022-12-20T06:10:00.214Z,91.30
2022-12-20T06:12:39.676Z,91.30
2022-12-20T06:15:06.898Z,91.30
2022-12-20T06:17:33.747Z,91.40
2022-12-20T06:20:00.784Z,91.40
2022-12-20T06:22:27.493Z,91.40
2022-12-20T06:24:56.750Z,91.50
2022-12-20T06:27:27.417Z,91.50
2022-12-20T06:30:08.009Z,91.50
2022-12-20T06:32:46.289Z,91.60
2022-12-20T06:35:14.332Z,91.50
2022-12-20T06:37:41.937Z,91.50
2022-12-20T06:40:13.695Z,91.50
2022-12-20T06:42:44.896Z,91.60
2022-12-20T06:45:12.850Z,91.50
2022-12-20T06:47:39.555Z,91.50
2022-12-20T06:50:06.731Z,91.50
2022-12-20T06:52:33.371Z,91.50
2022-12-20T06:55:00.348Z,91.40
2022-12-20T06:57:27.246Z,91.40
2022-12-20T06:59:54.879Z,91.40
2022-12-20T07:02:21.753Z,91.40
2022-12-20T07:04:48.601Z,91.40
2022-12-20T07:07:15.383Z,91.40
2022-12-20T07:09:42.601Z,91.30
2022-12-20T07:12:09.909Z,91.40
2022-12-20T07:14:36.986Z,91.40
2022-12-20T07:17:04.744Z,91.30
2022-12-20T07:19:31.918Z,91.30
2022-12-20T07:21:59.348Z,91.30
2022-12-20T07:24:26.625Z,91.30
2022-12-20T07:26:53.293Z,91.30
2022-12-20T07:29:20.053Z,91.40
2022-12-20T07:31:46.796Z,91.40
2022-12-20T07:34:13.737Z,91.40
2022-12-20T07:36:40.540Z,91.50
2022-12-20T07:39:07.366Z,91.50
2022-12-20T07:41:34.068Z,91.50
2022-12-20T07:44:02.958Z,91.50
2022-12-20T07:46:29.978Z,91.50
2022-12-20T07:48:56.955Z,91.50
2022-12-20T07:51:29.413Z,91.50
2022-12-20T07:54:06.485Z,91.50
2022-12-20T07:56:40.740Z,91.50
2022-12-20T07:59:08.990Z,91.50
2022-12-20T08:01:36.152Z,91.50
2022-12-20T08:04:05.722Z,91.50
2022-12-20T08:06:33.065Z,91.50
2022-12-20T08:09:01.090Z,91.50
2022-12-20T08:11:29.399Z,91.40
2022-12-20T08:13:58.247Z,91.40
2022-12-20T08:16:25.979Z,91.40
2022-12-20T08:18:52.938Z,91.30
2022-12-20T08:21:19.752Z,91.30
2022-12-20T08:23:46.493Z,91.30
2022-12-20T08:26:13.164Z,91.30
2022-12-20T08:28:40.073Z,91.30
2022-12-20T08:31:07.972Z,91.30
2022-12-20T08:33:35.294Z,91.30
2022-12-20T08:36:03.614Z,91.20
2022-12-20T08:38:33.341Z,91.20
2022-12-20T08:41:07.874Z,91.20
2022-12-20T08:43:34.881Z,91.20
2022-12-20T08:46:01.801Z,91.30
2022-12-20T08:48:28.764Z,91.30
2022-12-20T08:51:00.435Z,91.30
2022-12-20T08:53:27.723Z,91.30
2022-12-20T08:55:54.356Z,91.30
2022-12-20T08:58:21.182Z,91.30
2022-12-20T09:00:47.960Z,91.30
2022-12-20T09:03:15.261Z,91.30
2022-12-20T09:05:48.910Z,91.40
2022-12-20T09:08:15.733Z,91.40
2022-12-20T09:10:43.196Z,91.40
2022-12-20T09:13:10.963Z,91.40
2022-12-20T09:15:38.215Z,91.30
2022-12-20T09:18:05.555Z,91.30
2022-12-20T09:20:32.734Z,91.30
2022-12-20T09:22:59.912Z,91.40
2022-12-20T09:25:27.297Z,91.40
2022-12-20T09:27:56.412Z,91.40
2022-12-20T09:30:23.508Z,91.40
2022-12-20T09:32:50.309Z,91.40
2022-12-20T09:35:47.010Z,91.40
2022-12-20T09:38:13.780Z,91.40
2022-12-20T09:40:44.568Z,91.40
2022-12-20T09:43:12.115Z,91.40
2022-12-20T09:45:38.844Z,91.40
2022-12-20T09:48:06.656Z,91.40
2022-12-20T09:50:43.624Z,91.40
2022-12-20T09:53:14.818Z,91.40
2022-12-20T09:55:48.547Z,91.30
2022-12-20T09:58:23.155Z,91.40
2022-12-20T10:00:54.345Z,91.30
2022-12-20T10:03:30.162Z,91.40
2022-12-20T10:06:00.126Z,91.40
2022-12-20T10:08:42.345Z,91.30
2022-12-20T10:11:15.572Z,91.40
2022-12-20T10:13:48.509Z,91.40
2022-12-20T10:16:26.683Z,91.30
2022-12-20T10:19:20.025Z,91.30
2022-12-20T10:21:58.145Z,91.40
2022-12-20T10:24:30.473Z,91.40
2022-12-20T10:27:14.909Z,91.40
2022-12-20T10:29:42.204Z,91.40
2022-12-20T10:32:16.690Z,91.40
2022-12-20T10:34:48.719Z,91.50
2022-12-20T10:37:18.516Z,91.50
2022-12-20T10:39:48.056Z,91.50
2022-12-20T10:42:41.014Z,91.50
2022-12-20T10:45:31.151Z,91.50
2022-12-20T10:48:01.952Z,91.90
2022-12-20T10:50:29.148Z,91.50
2022-12-20T10:53:22.683Z,91.40
2022-12-20T10:55:49.417Z,91.40
2022-12-20T10:58:17.847Z,91.30
2022-12-20T11:00:45.386Z,91.30
2022-12-20T11:03:14.220Z,91.30
2022-12-20T11:05:41.511Z,91.30
2022-12-20T11:08:39.186Z,91.30
2022-12-20T11:11:12.883Z,91.30
2022-12-20T11:13:41.008Z,91.30
2022-12-20T11:16:22.333Z,91.30
2022-12-20T11:19:02.137Z,91.30
2022-12-20T11:21:41.254Z,91.40
2022-12-20T11:24:14.239Z,91.40
2022-12-20T11:26:48.561Z,91.50
2022-12-20T11:29:48.325Z,91.50
2022-12-20T11:32:26.681Z,91.50
2022-12-20T11:34:53.524Z,91.50
2022-12-20T11:37:22.563Z,91.50
2022-12-20T11:40:07.629Z,91.50
2022-12-20T11:42:42.370Z,91.60
2022-12-20T11:45:21.991Z,91.40
2022-12-20T11:47:50.974Z,91.50
2022-12-20T11:50:36.592Z,91.50
2022-12-20T11:53:07.688Z,91.50
2022-12-20T11:55:36.090Z,91.50
2022-12-20T11:58:20.158Z,91.40
2022-12-20T12:01:13.287Z,91.40
2022-12-20T12:03:41.431Z,91.40
2022-12-20T12:06:23.339Z,91.40
2022-12-20T12:08:53.597Z,91.30
2022-12-20T12:12:05.316Z,91.30
2022-12-20T12:14:23.767Z,91.30
2022-12-20T12:16:53.958Z,91.30
2022-12-20T12:19:24.531Z,91.40
2022-12-20T12:21:56.234Z,91.40
2022-12-20T12:24:31.194Z,91.40
2022-12-20T12:27:01.215Z,91.40
2022-12-20T12:29:33.259Z,91.30
2022-12-20T12:32:00.128Z,91.30
2022-12-20T12:34:45.953Z,91.30
2022-12-20T12:37:26.758Z,91.20
2022-12-20T12:40:10.422Z,91.60
2022-12-20T12:42:56.757Z,91.20
2022-12-20T12:45:38.189Z,91.10
2022-12-20T12:48:14.903Z,91.10
2022-12-20T12:50:46.915Z,91.10
2022-12-20T12:53:16.575Z,91.10
2022-12-20T12:55:45.466Z,91.10
2022-12-20T12:58:24.705Z,91.10
2022-12-20T13:00:53.228Z,91.00
2022-12-20T13:03:37.251Z,91.00
2022-12-20T13:06:23.120Z,90.90
2022-12-20T13:09:09.689Z,90.80
2022-12-20T13:11:36.448Z,90.80
2022-12-20T13:14:16.313Z,90.80
2022-12-20T13:17:12.278Z,90.90
2022-12-20T13:19:35.043Z,90.90
2022-12-20T13:22:06.592Z,90.90
2022-12-20T13:24:38.199Z,90.80
2022-12-20T13:27:16.835Z,90.70
2022-12-20T13:29:55.431Z,90.80
2022-12-20T13:32:40.946Z,90.80
2022-12-20T13:35:28.220Z,90.80
2022-12-20T13:38:05.864Z,90.80
2022-12-20T13:40:35.698Z,90.80
2022-12-20T13:43:05.876Z,90.80
2022-12-20T13:45:32.815Z,90.80
2022-12-20T13:48:10.865Z,90.90
2022-12-20T13:50:40.627Z,90.80
2022-12-20T13:53:16.091Z,90.70
2022-12-20T13:55:44.043Z,90.70
2022-12-20T13:58:12.770Z,90.70
2022-12-20T14:00:39.775Z,90.60
2022-12-20T14:03:13.344Z,90.70
2022-12-20T14:05:40.607Z,90.70
2022-12-20T14:08:14.991Z,90.70
2022-12-20T14:10:42.025Z,90.70
2022-12-20T14:13:19.477Z,90.60
2022-12-20T14:15:46.177Z,90.60
2022-12-20T14:18:17.693Z,90.50
2022-12-20T14:20:45.571Z,90.50
2022-12-20T14:23:15.402Z,90.60
2022-12-20T14:25:44.433Z,90.60
2022-12-20T14:28:30.447Z,90.70
2022-12-20T14:30:58.616Z,90.70
2022-12-20T14:33:31.504Z,90.70
2022-12-20T14:36:07.236Z,90.70
2022-12-20T14:38:33.957Z,90.80
2022-12-20T14:41:00.777Z,90.80
2022-12-20T14:43:34.876Z,90.80
2022-12-20T14:46:16.990Z,90.80
2022-12-20T14:48:43.857Z,90.80
2022-12-20T14:51:10.717Z,90.70
2022-12-20T14:53:41.257Z,90.80
2022-12-20T14:56:14.791Z,90.70
2022-12-20T14:58:41.618Z,90.70
2022-12-20T15:01:19.436Z,91.10
2022-12-20T15:03:50.946Z,90.60
2022-12-20T15:06:34.787Z,90.70
2022-12-20T15:09:01.696Z,90.70
2022-12-20T15:11:28.517Z,90.70
2022-12-20T15:13:56.522Z,90.70
2022-12-20T15:16:24.357Z,90.70
2022-12-20T15:18:52.321Z,90.70
2022-12-20T15:21:25.264Z,90.70
2022-12-20T15:23:53.953Z,90.70
2022-12-20T15:26:25.175Z,90.80
2022-12-20T15:28:52.030Z,91.00
2022-12-20T15:31:19.902Z,90.60
2022-12-20T15:33:46.901Z,90.60
2022-12-20T15:36:16.253Z,90.60
2022-12-20T15:41:31.192Z,90.60
2022-12-20T15:43:59.812Z,90.60
2022-12-20T15:46:27.033Z,90.70
2022-12-20T15:48:54.094Z,90.70
2022-12-20T15:51:28.538Z,90.60
2022-12-20T15:53:55.232Z,90.60
2022-12-20T15:56:23.749Z,90.60
2022-12-20T15:58:52.548Z,90.60
2022-12-20T16:01:21.512Z,90.60
2022-12-20T16:03:48.369Z,90.60
2022-12-20T16:06:15.080Z,90.60
2022-12-20T16:08:42.055Z,90.60
2022-12-20T16:11:26.503Z,90.60
2022-12-20T16:13:53.909Z,90.60
2022-12-20T16:16:22.077Z,90.60
2022-12-20T16:18:49.420Z,90.50
2022-12-20T16:21:23.778Z,90.50
2022-12-20T16:23:50.976Z,90.50
2022-12-20T16:26:19.581Z,90.50
2022-12-20T16:28:47.769Z,90.60
2022-12-20T16:31:25.609Z,90.60
2022-12-20T16:33:53.283Z,90.60
2022-12-20T16:36:20.104Z,90.60
2022-12-20T16:38:46.799Z,90.60
2022-12-20T16:41:21.552Z,90.70
2022-12-20T16:43:50.208Z,90.70
2022-12-20T16:46:18.284Z,90.70
2022-12-20T16:48:45.571Z,90.70
2022-12-20T16:51:21.567Z,90.70
2022-12-20T16:54:18.083Z,90.70
2022-12-20T16:56:35.627Z,90.70
2022-12-20T16:59:18.981Z,90.60
2022-12-20T17:01:46.988Z,90.70
2022-12-20T17:04:15.493Z,90.70
2022-12-20T17:06:42.699Z,90.70
2022-12-20T17:09:09.750Z,90.70
2022-12-20T17:11:36.574Z,90.70
2022-12-20T17:14:08.757Z,90.70
2022-12-20T17:16:39.306Z,90.70
2022-12-20T17:19:06.133Z,90.70
2022-12-20T17:24:26.411Z,90.70
2022-12-20T17:26:53.088Z,90.70
2022-12-20T17:29:20.443Z,90.70
2022-12-20T17:31:47.799Z,90.70
2022-12-20T17:34:25.284Z,90.70
2022-12-20T17:36:54.287Z,90.80
2022-12-20T17:39:21.315Z,90.70
2022-12-20T17:41:49.427Z,90.70
2022-12-20T17:44:19.131Z,90.70
2022-12-20T17:46:45.910Z,90.70
2022-12-20T17:49:13.046Z,90.80
2022-12-20T17:51:39.770Z,90.80
2022-12-20T17:54:06.847Z,90.80
2022-12-20T17:56:34.705Z,90.80
2022-12-20T17:59:01.793Z,90.80
2022-12-20T18:01:29.707Z,90.80
2022-12-20T18:04:05.795Z,90.80
2022-12-20T18:06:34.326Z,90.80
2022-12-20T18:09:01.949Z,90.80
2022-12-20T18:11:28.900Z,90.80
2022-12-20T18:13:59.861Z,90.80
2022-12-20T18:16:27.940Z,90.80
2022-12-20T18:18:55.269Z,91.20
2022-12-20T18:21:22.907Z,90.80
2022-12-20T18:23:49.739Z,90.80
2022-12-20T18:26:27.429Z,90.80
2022-12-20T18:28:58.163Z,90.80
2022-12-20T18:31:26.300Z,90.80
2022-12-20T18:33:58.064Z,90.90
2022-12-20T18:36:29.707Z,90.90
2022-12-20T18:38:57.202Z,90.90
2022-12-20T18:41:25.456Z,90.90
2022-12-20T18:43:53.297Z,90.90
2022-12-20T18:46:21.771Z,90.90
2022-12-20T18:49:02.802Z,90.90
2022-12-20T18:51:39.363Z,90.90
2022-12-20T18:54:07.535Z,90.90
2022-12-20T18:56:35.385Z,90.90
2022-12-20T18:59:11.629Z,90.90
2022-12-20T19:01:39.388Z,90.90
2022-12-20T19:04:07.137Z,90.90
2022-12-20T19:06:34.095Z,90.90
2022-12-20T19:09:05.495Z,90.90
2022-12-20T19:11:33.227Z,90.90
2022-12-20T19:14:00.036Z,90.80
2022-12-20T19:16:28.838Z,90.80
2022-12-20T19:18:55.871Z,90.80
2022-12-20T19:21:24.369Z,90.80
2022-12-20T19:23:52.613Z,90.80
2022-12-20T19:26:20.198Z,90.80
2022-12-20T19:28:47.127Z,90.80
2022-12-20T19:31:21.291Z,90.80
2022-12-20T19:33:48.640Z,90.80
2022-12-20T19:36:17.082Z,90.80
2022-12-20T19:38:48.442Z,90.80
2022-12-20T19:41:15.205Z,90.80
2022-12-20T19:43:44.263Z,90.80
2022-12-20T19:46:11.127Z,90.80
2022-12-20T19:48:37.942Z,90.80
2022-12-20T19:51:06.111Z,90.80
2022-12-20T19:53:33.344Z,90.80
2022-12-20T19:56:00.369Z,90.80
2022-12-20T19:58:27.374Z,90.80
2022-12-20T20:00:54.995Z,90.80
2022-12-20T20:03:22.140Z,91.20
2022-12-20T20:05:49.437Z,90.80
2022-12-20T20:08:16.716Z,90.80
2022-12-20T20:10:44.675Z,90.90
2022-12-20T20:13:11.588Z,90.90
2022-12-20T20:15:38.798Z,90.80
2022-12-20T20:18:06.492Z,90.90
2022-12-20T20:20:42.677Z,90.80
2022-12-20T20:23:09.786Z,90.80
2022-12-20T20:25:36.903Z,90.80
2022-12-20T20:28:04.317Z,90.80
2022-12-20T20:30:31.311Z,90.80
2022-12-20T20:32:58.476Z,90.90
2022-12-20T20:35:27.745Z,90.80
2022-12-20T20:37:55.392Z,90.80
2022-12-20T20:40:24.117Z,90.80
2022-12-20T20:42:55.804Z,90.80
2022-12-20T20:45:36.910Z,90.80
2022-12-20T20:48:07.384Z,90.70
2022-12-20T20:50:45.909Z,90.80
2022-12-20T20:53:14.056Z,91.20
2022-12-20T20:55:41.235Z,90.80
2022-12-20T20:58:12.034Z,90.80
2022-12-20T21:00:39.461Z,90.80
2022-12-20T21:03:06.653Z,90.80
2022-12-20T21:08:24.832Z,90.80
2022-12-20T21:10:51.899Z,90.80
2022-12-20T21:13:18.846Z,90.80
2022-12-20T21:15:46.513Z,90.80
2022-12-20T21:18:13.895Z,90.80
2022-12-20T21:20:40.666Z,90.90
2022-12-20T21:23:07.440Z,90.90
2022-12-20T21:25:34.362Z,90.90
2022-12-20T21:28:01.183Z,90.90
2022-12-20T21:30:27.991Z,90.90
2022-12-20T21:32:54.680Z,90.90
2022-12-20T21:35:21.589Z,90.80
2022-12-20T21:37:49.629Z,90.80
2022-12-20T21:40:16.428Z,90.80
2022-12-20T21:42:43.210Z,90.80
2022-12-20T21:45:12.019Z,90.80
2022-12-20T21:47:38.851Z,90.80
2022-12-20T21:50:06.149Z,90.80
2022-12-20T21:52:32.978Z,90.70
2022-12-20T21:54:59.863Z,90.80
2022-12-20T21:57:26.828Z,90.70
2022-12-20T21:59:53.634Z,90.80
2022-12-20T22:02:20.726Z,90.70
2022-12-20T22:04:47.552Z,90.80
2022-12-20T22:07:14.239Z,90.80
2022-12-20T22:09:40.983Z,90.80
2022-12-20T22:12:07.734Z,90.80
2022-12-20T22:14:34.545Z,90.80
2022-12-20T22:17:01.285Z,90.80
2022-12-20T22:19:28.111Z,90.70
2022-12-20T22:21:58.312Z,90.80
2022-12-20T22:24:25.500Z,90.80
2022-12-20T22:26:52.299Z,90.80
2022-12-20T22:29:20.116Z,90.80
2022-12-20T22:31:46.939Z,90.90
2022-12-20T22:34:13.707Z,90.80
2022-12-20T22:36:40.374Z,90.80
2022-12-20T22:39:07.173Z,90.80
2022-12-20T22:41:36.813Z,90.80
2022-12-20T22:44:03.673Z,90.80
2022-12-20T22:46:30.760Z,90.80
2022-12-20T22:48:58.315Z,90.80
2022-12-20T22:51:27.053Z,90.80
2022-12-20T22:53:56.564Z,90.90
2022-12-20T22:56:23.267Z,90.80
2022-12-20T22:58:50.414Z,90.80
2022-12-20T23:01:18.549Z,90.80
2022-12-20T23:03:45.461Z,91.20
2022-12-20T23:06:13.390Z,90.90
2022-12-20T23:08:40.053Z,90.90
2022-12-20T23:11:31.372Z,90.90
2022-12-20T23:14:19.238Z,90.90
2022-12-20T23:16:46.071Z,90.90
2022-12-20T23:19:12.804Z,90.90
2022-12-20T23:21:58.357Z,90.90
2022-12-20T23:24:25.077Z,90.90
2022-12-20T23:26:51.784Z,90.90
2022-12-20T23:29:18.662Z,90.90
2022-12-20T23:31:45.343Z,90.90
2022-12-20T23:34:12.069Z,90.90
2022-12-20T23:36:38.898Z,90.90
2022-12-20T23:39:05.824Z,90.90
2022-12-20T23:41:33.104Z,90.90
2022-12-20T23:44:00.063Z,90.90
2022-12-20T23:46:26.956Z,90.90
2022-12-20T23:48:53.892Z,90.90
2022-12-20T23:51:20.830Z,90.90
2022-12-20T23:53:47.622Z,90.90
2022-12-20T23:56:18.522Z,90.90
2022-12-20T23:58:45.951Z,90.90
